createdAt,value
2019-04-11T00:01:51.903Z,18.62
2019-04-11T00:04:19.182Z,24.20
2019-04-11T00:06:47.853Z,22.30
2019-04-11T00:09:17.124Z,21.45
2019-04-11T00:11:46.190Z,24.35
2019-04-11T00:14:15.799Z,24.95
2019-04-11T00:16:49.940Z,20.95
2019-04-11T00:19:18.974Z,18.35
2019-04-11T00:21:47.074Z,19.42
2019-04-11T00:24:14.996Z,22.70
2019-04-11T00:26:42.914Z,21.17
2019-04-11T00:29:12.150Z,18.55
2019-04-11T00:31:41.130Z,19.23
2019-04-11T00:34:09.205Z,24.18
2019-04-11T00:36:37.239Z,18.80
2019-04-11T00:39:07.685Z,21.62
2019-04-11T00:41:35.845Z,18.80
2019-04-11T00:44:04.008Z,18.60
2019-04-11T00:46:34.127Z,21.05
2019-04-11T00:49:02.938Z,18.30
2019-04-11T00:51:31.895Z,20.52
2019-04-11T00:54:00.817Z,21.95
2019-04-11T00:56:28.875Z,20.77
2019-04-11T00:58:56.841Z,18.17
2019-04-11T01:01:25.941Z,19.48
2019-04-11T01:03:54.214Z,20.08
2019-04-11T01:06:22.484Z,18.85
2019-04-11T01:08:51.568Z,18.57
2019-04-11T01:11:19.679Z,18.75
2019-04-11T01:13:51.731Z,18.98
2019-04-11T01:16:37.408Z,21.17
2019-04-11T01:19:06.602Z,18.15
2019-04-11T01:21:34.904Z,19.40
2019-04-11T01:24:03.797Z,18.87
2019-04-11T01:26:32.992Z,25.32
2019-04-11T01:29:01.010Z,21.00
2019-04-11T01:31:30.826Z,20.08
2019-04-11T01:33:58.759Z,18.20
2019-04-11T01:36:26.959Z,20.08
2019-04-11T01:38:58.875Z,18.00
2019-04-11T01:41:27.011Z,17.73
2019-04-11T01:44:00.796Z,18.75
2019-04-11T01:46:24.805Z,19.00
2019-04-11T01:49:01.412Z,19.35
2019-04-11T01:51:29.674Z,16.85
2019-04-11T01:53:57.721Z,16.50
2019-04-11T01:56:25.611Z,20.92
2019-04-11T01:58:55.206Z,18.02
2019-04-11T02:01:49.616Z,16.80
2019-04-11T02:04:40.452Z,17.52
2019-04-11T02:07:10.078Z,19.85
2019-04-11T02:09:38.178Z,19.92
2019-04-11T02:12:06.166Z,19.92
2019-04-11T02:14:34.124Z,17.27
2019-04-11T02:17:02.199Z,20.37
2019-04-11T02:19:30.091Z,20.15
2019-04-11T02:22:14.269Z,22.98
2019-04-11T02:24:57.931Z,18.40
2019-04-11T02:27:27.542Z,17.05
2019-04-11T02:29:55.453Z,16.65
2019-04-11T02:32:25.477Z,17.42
2019-04-11T02:34:57.106Z,18.40
2019-04-11T02:37:26.117Z,16.95
2019-04-11T02:39:55.792Z,16.85
2019-04-11T02:42:25.462Z,18.98
2019-04-11T02:45:10.935Z,18.30
2019-04-11T02:47:27.630Z,18.87
2019-04-11T02:49:55.041Z,16.27
2019-04-11T02:52:25.107Z,16.37
2019-04-11T02:54:54.408Z,17.07
2019-04-11T02:57:23.491Z,14.87
2019-04-11T02:59:51.564Z,16.27
2019-04-11T03:02:21.482Z,16.90
2019-04-11T03:04:51.041Z,20.10
2019-04-11T03:07:20.541Z,17.45
2019-04-11T03:09:49.116Z,18.15
2019-04-11T03:12:19.100Z,15.60
2019-04-11T03:15:05.790Z,22.77
2019-04-11T03:17:23.114Z,18.45
2019-04-11T03:19:59.576Z,16.50
2019-04-11T03:22:20.418Z,15.30
2019-04-11T03:24:49.180Z,20.85
2019-04-11T03:27:26.007Z,17.87
2019-04-11T03:29:53.817Z,17.37
2019-04-11T03:36:01.070Z,16.52
2019-04-11T03:37:50.116Z,17.23
2019-04-11T03:40:14.728Z,14.55
2019-04-11T03:42:41.674Z,15.98
2019-04-11T03:45:15.324Z,17.20
2019-04-11T03:47:37.393Z,15.30
2019-04-11T03:50:01.607Z,17.40
2019-04-11T03:52:25.818Z,17.98
2019-04-11T03:54:56.048Z,16.67
2019-04-11T03:57:25.577Z,18.50
2019-04-11T03:59:54.495Z,16.00
2019-04-11T04:02:24.599Z,17.92
2019-04-11T04:04:53.928Z,14.85
2019-04-11T04:07:23.463Z,18.60
2019-04-11T04:09:53.633Z,15.90
2019-04-11T04:12:22.717Z,21.05
2019-04-11T04:15:13.153Z,17.02
2019-04-11T04:17:51.915Z,15.85
2019-04-11T04:20:54.394Z,14.87
2019-04-11T04:23:29.454Z,17.55
2019-04-11T04:25:58.500Z,15.90
2019-04-11T04:28:27.293Z,16.48
2019-04-11T04:30:55.480Z,15.63
2019-04-11T04:33:23.762Z,17.20
2019-04-11T04:35:52.356Z,16.27
2019-04-11T04:38:21.246Z,14.68
2019-04-11T04:41:07.663Z,23.55
2019-04-11T04:43:22.685Z,17.52
2019-04-11T04:46:08.440Z,18.27
2019-04-11T04:48:24.658Z,16.48
2019-04-11T04:50:54.174Z,17.25
2019-04-11T04:53:23.434Z,16.12
2019-04-11T04:55:52.821Z,18.15
2019-04-11T04:58:22.311Z,14.10
2019-04-11T05:00:53.805Z,18.32
2019-04-11T05:03:22.187Z,19.30
2019-04-11T05:05:52.900Z,17.98
2019-04-11T05:08:22.736Z,17.42
2019-04-11T05:10:51.414Z,19.42
2019-04-11T05:13:19.573Z,15.05
2019-04-11T05:15:48.966Z,16.80
2019-04-11T05:18:18.173Z,16.17
2019-04-11T05:20:48.263Z,13.25
2019-04-11T05:23:17.036Z,14.63
2019-04-11T05:25:44.993Z,12.53
2019-04-11T05:28:19.260Z,16.37
2019-04-11T05:30:47.415Z,15.30
2019-04-11T05:33:15.738Z,13.93
2019-04-11T05:35:43.820Z,14.85
2019-04-11T05:38:12.498Z,15.38
2019-04-11T05:40:40.587Z,16.67
2019-04-11T05:43:08.991Z,17.40
2019-04-11T05:45:37.864Z,18.80
2019-04-11T05:48:09.652Z,14.35
2019-04-11T05:50:43.318Z,17.20
2019-04-11T05:53:09.463Z,12.58
2019-04-11T05:55:43.079Z,11.20
2019-04-11T05:58:12.756Z,14.85
2019-04-11T06:01:05.614Z,15.10
2019-04-11T06:03:34.291Z,13.90
2019-04-11T06:06:18.383Z,14.83
2019-04-11T06:08:46.537Z,14.90
2019-04-11T06:11:37.187Z,11.38
2019-04-11T06:14:11.157Z,14.05
2019-04-11T06:16:47.249Z,15.78
2019-04-11T06:19:30.760Z,13.10
2019-04-11T06:22:01.727Z,12.65
2019-04-11T06:24:36.455Z,13.90
2019-04-11T06:27:13.680Z,12.63
2019-04-11T06:30:01.312Z,14.85
2019-04-11T06:32:47.850Z,15.58
2019-04-11T06:35:22.117Z,16.37
2019-04-11T06:38:10.492Z,11.88
2019-04-11T06:40:51.121Z,13.13
2019-04-11T06:43:42.663Z,10.40
2019-04-11T06:46:47.617Z,10.70
2019-04-11T06:49:26.623Z,12.07
2019-04-11T06:51:58.533Z,12.63
2019-04-11T06:54:37.266Z,14.85
2019-04-11T06:57:13.967Z,14.05
2019-04-11T06:59:44.892Z,16.00
2019-04-11T07:02:18.120Z,13.80
2019-04-11T07:04:53.773Z,14.65
2019-04-11T07:07:26.893Z,11.88
2019-04-11T07:09:58.062Z,14.35
2019-04-11T07:12:49.349Z,16.60
2019-04-11T07:15:29.449Z,13.85
2019-04-11T07:18:16.093Z,11.35
2019-04-11T07:20:54.113Z,14.85
2019-04-11T07:23:40.600Z,11.12
2019-04-11T07:26:31.464Z,12.95
2019-04-11T07:29:22.020Z,12.43
2019-04-11T07:32:09.470Z,15.75
2019-04-11T07:34:56.555Z,11.68
2019-04-11T07:37:47.618Z,11.80
2019-04-11T07:40:35.278Z,6.83
2019-04-11T07:43:31.263Z,9.35
2019-04-11T07:46:25.602Z,10.28
2019-04-11T07:49:01.637Z,9.18
2019-04-11T07:51:34.516Z,10.50
2019-04-11T07:54:04.913Z,10.03
2019-04-11T07:57:04.848Z,7.85
2019-04-11T07:59:53.351Z,8.20
2019-04-11T08:02:39.972Z,7.20
2019-04-11T08:05:46.757Z,8.08
2019-04-11T08:08:37.376Z,13.18
2019-04-11T08:11:13.859Z,8.28
2019-04-11T08:13:58.656Z,10.00
2019-04-11T08:16:46.868Z,8.33
2019-04-11T08:19:40.791Z,10.00
2019-04-11T08:22:18.931Z,8.63
2019-04-11T08:25:23.033Z,5.60
2019-04-11T08:28:00.753Z,6.30
2019-04-11T08:30:37.052Z,8.35
2019-04-11T08:33:05.057Z,8.93
2019-04-11T08:35:52.943Z,6.97
2019-04-11T08:38:22.550Z,8.15
2019-04-11T08:41:27.476Z,9.28
2019-04-11T08:43:55.487Z,9.53
2019-04-11T08:46:42.692Z,5.50
2019-04-11T08:49:21.566Z,6.80
2019-04-11T08:51:51.602Z,7.17
2019-04-11T08:54:38.294Z,8.00
2019-04-11T08:57:07.517Z,7.17
2019-04-11T08:59:53.882Z,8.05
2019-04-11T09:02:26.967Z,8.03
2019-04-11T09:05:18.302Z,8.00
2019-04-11T09:08:07.994Z,7.00
2019-04-11T09:11:08.603Z,5.83
2019-04-11T09:13:55.959Z,6.80
2019-04-11T09:16:42.002Z,8.00
2019-04-11T09:19:18.851Z,13.28
2019-04-11T09:22:05.245Z,8.90
2019-04-11T09:24:50.567Z,9.93
2019-04-11T09:27:36.669Z,8.30
2019-04-11T09:30:13.307Z,8.08
2019-04-11T09:32:53.871Z,8.95
2019-04-11T09:35:27.250Z,8.13
2019-04-11T09:37:55.360Z,9.28
2019-04-11T09:40:52.257Z,8.08
2019-04-11T09:43:22.630Z,8.08
2019-04-11T09:46:10.306Z,9.00
2019-04-11T09:49:00.948Z,9.20
2019-04-11T09:51:44.324Z,7.20
2019-04-11T09:54:20.177Z,7.12
2019-04-11T09:57:09.922Z,8.10
2019-04-11T09:59:51.770Z,7.10
2019-04-11T10:02:39.712Z,7.37
2019-04-11T10:05:09.490Z,10.70
2019-04-11T10:08:12.782Z,10.13
2019-04-11T10:11:10.132Z,7.97
2019-04-11T10:13:57.582Z,11.48
2019-04-11T10:16:46.465Z,5.65
2019-04-11T10:19:24.363Z,8.85
2019-04-11T10:22:06.874Z,8.63
2019-04-11T10:25:01.036Z,5.83
2019-04-11T10:27:55.256Z,6.60
2019-04-11T10:30:44.108Z,10.58
2019-04-11T10:33:37.183Z,6.90
2019-04-11T10:36:36.986Z,9.78
2019-04-11T10:39:27.162Z,6.33
2019-04-11T10:41:59.130Z,8.08
2019-04-11T10:44:34.090Z,7.25
2019-04-11T10:47:09.835Z,7.30
2019-04-11T10:50:03.261Z,6.87
2019-04-11T10:52:36.263Z,6.50
2019-04-11T10:55:18.008Z,6.72
2019-04-11T10:57:48.901Z,8.65
2019-04-11T11:00:33.579Z,8.00
2019-04-11T11:03:29.069Z,6.30
2019-04-11T11:05:59.667Z,6.97
2019-04-11T11:08:33.516Z,6.33
2019-04-11T11:11:06.701Z,6.42
2019-04-11T11:13:54.270Z,7.20
2019-04-11T11:16:28.807Z,16.93
2019-04-11T11:19:41.896Z,5.75
2019-04-11T11:21:53.387Z,7.00
2019-04-11T11:24:40.685Z,8.48
2019-04-11T11:27:09.440Z,5.25
2019-04-11T11:29:58.186Z,6.10
2019-04-11T11:32:33.528Z,8.48
2019-04-11T11:35:25.124Z,5.95
2019-04-11T11:38:00.128Z,7.17
2019-04-11T11:40:56.295Z,7.87
2019-04-11T11:43:27.925Z,8.03
2019-04-11T11:46:14.251Z,9.48
2019-04-11T11:48:48.725Z,9.10
2019-04-11T11:51:37.506Z,6.72
2019-04-11T11:54:31.410Z,11.48
2019-04-11T11:57:03.060Z,7.80
2019-04-11T11:59:38.652Z,9.55
2019-04-11T12:02:10.720Z,8.28
2019-04-11T12:05:00.205Z,8.35
2019-04-11T12:07:37.984Z,9.00
2019-04-11T12:10:26.128Z,7.58
2019-04-11T12:13:19.244Z,8.75
2019-04-11T12:16:16.055Z,9.60
2019-04-11T12:18:54.273Z,7.90
2019-04-11T12:21:28.110Z,8.20
2019-04-11T12:24:21.097Z,9.00
2019-04-11T12:27:06.678Z,7.50
2019-04-11T12:29:50.510Z,8.15
2019-04-11T12:32:22.614Z,11.00
2019-04-11T12:35:02.069Z,25.82
2019-04-11T12:37:35.896Z,9.40
2019-04-11T12:40:23.494Z,7.10
2019-04-11T12:42:54.684Z,9.48
2019-04-11T12:45:52.399Z,8.03
2019-04-11T12:48:22.291Z,12.75
2019-04-11T12:51:13.602Z,9.33
2019-04-11T12:53:43.440Z,7.85
2019-04-11T12:56:34.290Z,6.42
2019-04-11T12:59:05.349Z,7.85
2019-04-11T13:01:51.828Z,5.58
2019-04-11T13:04:32.316Z,10.10
2019-04-11T13:07:32.281Z,8.40
2019-04-11T13:10:30.699Z,7.50
2019-04-11T13:13:18.478Z,11.50
2019-04-11T13:16:12.499Z,8.68
2019-04-11T13:19:03.489Z,7.05
2019-04-11T13:21:45.456Z,9.55
2019-04-11T13:24:31.860Z,8.88
2019-04-11T13:27:14.818Z,7.63
2019-04-11T13:30:02.882Z,7.20
2019-04-11T13:32:53.229Z,7.97
2019-04-11T13:35:49.004Z,7.83
2019-04-11T13:38:19.160Z,8.83
2019-04-11T13:41:06.804Z,7.30
2019-04-11T13:44:12.525Z,8.10
2019-04-11T13:47:00.177Z,8.45
2019-04-11T13:49:53.239Z,7.05
2019-04-11T13:52:42.988Z,10.60
2019-04-11T13:55:29.436Z,7.30
2019-04-11T13:58:18.566Z,8.63
2019-04-11T14:00:50.323Z,9.57
2019-04-11T14:03:48.186Z,9.57
2019-04-11T14:06:23.103Z,8.60
2019-04-11T14:09:12.110Z,8.20
2019-04-11T14:11:47.699Z,7.90
2019-04-11T14:14:35.898Z,7.53
2019-04-11T14:17:14.468Z,9.20
2019-04-11T14:20:12.166Z,7.63
2019-04-11T14:23:14.681Z,7.40
2019-04-11T14:25:58.184Z,7.60
2019-04-11T14:28:30.834Z,8.77
2019-04-11T14:31:21.940Z,9.60
2019-04-11T14:33:55.595Z,8.90
2019-04-11T14:36:41.758Z,8.80
2019-04-11T14:39:12.223Z,9.20
2019-04-11T14:42:03.886Z,9.07
2019-04-11T14:44:32.789Z,8.33
2019-04-11T14:47:18.979Z,10.60
2019-04-11T14:49:50.942Z,7.60
2019-04-11T14:52:37.269Z,8.83
2019-04-11T14:55:05.699Z,9.47
2019-04-11T14:57:56.226Z,8.50
2019-04-11T15:00:35.355Z,8.80
2019-04-11T15:03:29.040Z,8.37
2019-04-11T15:06:16.925Z,8.53
2019-04-11T15:09:02.998Z,9.30
2019-04-11T15:11:52.592Z,7.90
2019-04-11T15:14:34.133Z,9.70
2019-04-11T15:17:14.971Z,8.13
2019-04-11T15:19:46.283Z,8.00
2019-04-11T15:22:24.198Z,8.33
2019-04-11T15:24:55.383Z,6.97
2019-04-11T15:28:01.746Z,10.20
2019-04-11T15:30:31.372Z,9.23
2019-04-11T15:33:31.676Z,7.30
2019-04-11T15:36:01.589Z,7.07
2019-04-11T15:39:07.623Z,8.00
2019-04-11T15:41:37.376Z,7.47
2019-04-11T15:44:44.565Z,7.77
2019-04-11T15:47:14.098Z,7.47
2019-04-11T15:50:11.046Z,7.20
2019-04-11T15:52:47.479Z,10.53
2019-04-11T15:55:37.553Z,8.23
2019-04-11T15:58:06.288Z,8.33
2019-04-11T16:00:54.075Z,7.03
2019-04-11T16:03:24.730Z,9.25
2019-04-11T16:06:12.011Z,9.10
2019-04-11T16:08:58.012Z,10.63
2019-04-11T16:11:52.318Z,8.13
2019-04-11T16:14:39.738Z,7.53
2019-04-11T16:17:36.603Z,12.20
2019-04-11T16:20:19.813Z,8.93
2019-04-11T16:23:10.497Z,8.35
2019-04-11T16:25:42.892Z,7.67
2019-04-11T16:28:38.195Z,10.35
2019-04-11T16:31:09.471Z,8.80
2019-04-11T16:34:03.358Z,8.30
2019-04-11T16:36:37.660Z,8.40
2019-04-11T16:39:28.556Z,7.00
2019-04-11T16:42:01.845Z,8.05
2019-04-11T16:44:48.744Z,8.93
2019-04-11T16:47:47.606Z,8.13
2019-04-11T16:50:15.873Z,8.30
2019-04-11T16:52:44.451Z,10.03
2019-04-11T16:55:13.991Z,8.40
2019-04-11T16:57:44.205Z,9.50
2019-04-11T17:00:21.238Z,8.68
2019-04-11T17:02:49.940Z,7.40
2019-04-11T17:05:18.161Z,7.92
2019-04-11T17:08:21.076Z,7.70
2019-04-11T17:11:20.826Z,7.60
2019-04-11T17:13:49.172Z,8.63
2019-04-11T17:16:20.726Z,8.33
2019-04-11T17:18:48.999Z,7.05
2019-04-11T17:21:17.547Z,7.92
2019-04-11T17:23:47.250Z,9.55
2019-04-11T17:26:16.642Z,8.88
2019-04-11T17:28:44.961Z,9.75
2019-04-11T17:31:13.238Z,8.23
2019-04-11T17:33:42.547Z,6.50
2019-04-11T17:36:10.782Z,11.95
2019-04-11T17:38:40.120Z,10.50
2019-04-11T17:41:11.937Z,7.50
2019-04-11T17:43:42.010Z,6.95
2019-04-11T17:46:10.601Z,7.62
2019-04-11T17:48:39.171Z,7.72
2019-04-11T17:51:09.525Z,8.45
2019-04-11T17:53:37.465Z,7.47
2019-04-11T17:56:05.793Z,7.97
2019-04-11T17:58:34.241Z,6.78
2019-04-11T18:01:06.053Z,6.33
2019-04-11T18:03:34.512Z,8.08
2019-04-11T18:06:02.902Z,9.53
2019-04-11T18:08:34.345Z,6.65
2019-04-11T18:11:02.562Z,8.18
2019-04-11T18:13:31.706Z,7.53
2019-04-11T18:16:01.165Z,7.03
2019-04-11T18:18:30.173Z,6.33
2019-04-11T18:20:58.487Z,9.28
2019-04-11T18:23:26.848Z,6.22
2019-04-11T18:25:55.274Z,8.65
2019-04-11T18:28:23.622Z,6.72
2019-04-11T18:30:54.008Z,7.53
2019-04-11T18:33:23.350Z,7.47
2019-04-11T18:35:51.612Z,9.70
2019-04-11T18:38:19.995Z,6.35
2019-04-11T18:40:48.350Z,5.75
2019-04-11T18:43:17.822Z,9.35
2019-04-11T18:45:46.337Z,6.65
2019-04-11T18:48:14.848Z,7.65
2019-04-11T18:50:44.132Z,8.63
2019-04-11T18:53:13.021Z,8.75
2019-04-11T18:55:42.799Z,8.80
2019-04-11T18:58:11.503Z,6.00
2019-04-11T19:00:45.669Z,9.25
2019-04-11T19:03:16.887Z,7.67
2019-04-11T19:05:46.231Z,8.60
2019-04-11T19:08:14.946Z,9.20
2019-04-11T19:10:45.704Z,7.28
2019-04-11T19:13:16.677Z,7.05
2019-04-11T19:15:46.296Z,9.28
2019-04-11T19:18:16.553Z,9.50
2019-04-11T19:20:50.011Z,6.12
2019-04-11T19:23:16.616Z,7.35
2019-04-11T19:25:46.100Z,6.70
2019-04-11T19:28:15.387Z,5.28
2019-04-11T19:30:47.743Z,5.75
2019-04-11T19:33:24.098Z,5.33
2019-04-11T19:38:43.335Z,6.62
2019-04-11T19:41:17.143Z,5.67
2019-04-11T19:43:48.794Z,7.90
2019-04-11T19:46:18.005Z,6.10
2019-04-11T19:48:49.967Z,9.80
2019-04-11T19:51:18.580Z,6.20
2019-04-11T19:53:47.492Z,8.48
2019-04-11T19:56:27.245Z,8.58
2019-04-11T19:58:55.649Z,8.18
2019-04-11T20:01:24.224Z,7.62
2019-04-11T20:03:54.676Z,6.58
2019-04-11T20:06:23.928Z,6.05
2019-04-11T20:08:52.359Z,5.55
2019-04-11T20:11:20.784Z,6.22
2019-04-11T20:13:49.898Z,8.48
2019-04-11T20:16:19.148Z,7.70
2019-04-11T20:18:51.344Z,6.47
2019-04-11T20:21:19.308Z,5.80
2019-04-11T20:23:48.008Z,7.78
2019-04-11T20:26:20.897Z,6.85
2019-04-11T20:28:51.578Z,9.35
2019-04-11T20:31:21.450Z,6.22
2019-04-11T20:33:50.430Z,6.55
2019-04-11T20:36:19.097Z,7.37
2019-04-11T20:38:49.084Z,7.53
2019-04-11T20:41:22.960Z,7.75
2019-04-11T20:43:50.024Z,9.28
2019-04-11T20:46:18.937Z,5.85
2019-04-11T20:48:48.007Z,8.90
2019-04-11T20:51:17.579Z,6.45
2019-04-11T20:53:46.454Z,6.42
2019-04-11T20:56:27.078Z,5.60
2019-04-11T20:58:55.549Z,6.47
2019-04-11T21:01:26.194Z,6.20
2019-04-11T21:04:00.117Z,6.40
2019-04-11T21:06:31.631Z,5.87
2019-04-11T21:08:58.414Z,6.00
2019-04-11T21:11:37.215Z,6.78
2019-04-11T21:14:04.676Z,7.00
2019-04-11T21:16:32.978Z,7.80
2019-04-11T21:19:02.648Z,6.28
2019-04-11T21:21:31.149Z,5.87
2019-04-11T21:24:00.537Z,7.35
2019-04-11T21:26:29.547Z,9.73
2019-04-11T21:28:59.424Z,7.40
2019-04-11T21:31:30.790Z,6.53
2019-04-11T21:33:58.494Z,6.67
2019-04-11T21:36:27.084Z,7.30
2019-04-11T21:38:56.057Z,6.87
2019-04-11T21:41:24.304Z,9.05
2019-04-11T21:43:52.816Z,6.45
2019-04-11T21:46:24.837Z,8.33
2019-04-11T21:48:55.051Z,10.05
2019-04-11T21:51:24.474Z,7.80
2019-04-11T21:53:58.556Z,11.70
2019-04-11T21:56:27.004Z,8.10
2019-04-11T21:58:56.370Z,7.12
2019-04-11T22:01:25.125Z,7.10
2019-04-11T22:03:57.020Z,6.00
2019-04-11T22:06:24.053Z,7.80
2019-04-11T22:08:52.143Z,11.08
2019-04-11T22:11:20.235Z,7.30
2019-04-11T22:13:49.558Z,8.38
2019-04-11T22:16:17.700Z,7.58
2019-04-11T22:18:46.901Z,9.35
2019-04-11T22:21:15.982Z,8.53
2019-04-11T22:23:48.913Z,6.92
2019-04-11T22:26:14.180Z,6.60
2019-04-11T22:28:42.894Z,6.85
2019-04-11T22:31:11.887Z,8.60
2019-04-11T22:33:47.216Z,7.60
2019-04-11T22:36:15.311Z,6.45
2019-04-11T22:38:43.711Z,8.75
2019-04-11T22:41:12.037Z,7.35
2019-04-11T22:43:40.437Z,8.33
2019-04-11T22:46:20.014Z,6.72
2019-04-11T22:48:39.815Z,6.42
2019-04-11T22:51:08.894Z,6.80
2019-04-11T22:53:40.773Z,7.47
2019-04-11T22:56:08.970Z,8.10
2019-04-11T22:58:43.533Z,7.50
2019-04-11T23:01:10.563Z,6.83
2019-04-11T23:03:47.617Z,9.40
2019-04-11T23:06:17.767Z,6.12
2019-04-11T23:08:48.567Z,9.28
2019-04-11T23:11:15.700Z,7.20
2019-04-11T23:13:46.774Z,7.25
2019-04-11T23:16:15.068Z,9.05
2019-04-11T23:18:44.199Z,7.22
2019-04-11T23:21:14.237Z,6.12
2019-04-11T23:23:43.008Z,7.95
2019-04-11T23:26:11.162Z,7.40
2019-04-11T23:28:39.171Z,8.33
2019-04-11T23:31:07.219Z,7.12
2019-04-11T23:33:39.777Z,6.50
2019-04-11T23:36:07.779Z,7.20
2019-04-11T23:38:35.733Z,7.72
2019-04-11T23:41:04.456Z,6.70
2019-04-11T23:43:32.523Z,7.37
2019-04-11T23:46:00.539Z,7.20
2019-04-11T23:48:28.688Z,7.80
2019-04-11T23:50:56.791Z,8.23
2019-04-11T23:53:29.054Z,9.10
2019-04-11T23:55:59.987Z,8.20
2019-04-11T23:58:25.884Z,8.75
